createdAt,value
2023-05-08T00:01:16.542Z,3.43
2023-05-08T00:04:20.750Z,3.33
2023-05-08T00:07:23.608Z,2.72
2023-05-08T00:10:26.333Z,2.83
2023-05-08T00:13:28.994Z,3.03
2023-05-08T00:16:32.409Z,3.00
2023-05-08T00:19:35.098Z,3.30
2023-05-08T00:22:37.877Z,3.22
2023-05-08T00:25:40.563Z,3.00
2023-05-08T00:28:43.636Z,3.00
2023-05-08T00:31:46.819Z,3.30
2023-05-08T00:34:55.722Z,3.05
2023-05-08T00:37:58.448Z,2.58
2023-05-08T00:41:01.753Z,2.40
2023-05-08T00:44:04.941Z,3.13
2023-05-08T00:47:09.177Z,3.07
2023-05-08T00:50:12.434Z,3.45
2023-05-08T00:53:15.756Z,3.10
2023-05-08T00:56:20.881Z,3.60
2023-05-08T00:59:25.831Z,2.35
2023-05-08T01:02:31.739Z,2.37
2023-05-08T01:05:34.577Z,2.58
2023-05-08T01:08:37.423Z,2.72
2023-05-08T01:11:59.642Z,3.97
2023-05-08T01:15:21.360Z,4.10
2023-05-08T01:18:37.212Z,2.47
2023-05-08T01:21:56.954Z,3.33
2023-05-08T01:25:37.473Z,3.05
2023-05-08T01:28:55.032Z,3.05
2023-05-08T01:32:23.442Z,3.03
2023-05-08T01:36:14.521Z,3.37
2023-05-08T01:39:32.472Z,3.13
2023-05-08T01:42:48.308Z,3.30
2023-05-08T01:45:55.043Z,2.97
2023-05-08T01:49:16.111Z,2.60
2023-05-08T01:52:23.815Z,2.83
2023-05-08T01:55:30.977Z,2.97
2023-05-08T01:58:36.967Z,5.25
2023-05-08T02:01:41.485Z,2.88
2023-05-08T02:04:45.261Z,3.08
2023-05-08T02:07:49.656Z,2.93
2023-05-08T02:10:54.766Z,3.13
2023-05-08T02:13:59.425Z,2.65
2023-05-08T02:17:03.664Z,2.80
2023-05-08T02:20:08.837Z,2.90
2023-05-08T02:23:12.526Z,3.30
2023-05-08T02:26:16.605Z,2.78
2023-05-08T02:29:22.579Z,3.72
2023-05-08T02:32:26.758Z,3.13
2023-05-08T02:35:31.637Z,2.38
2023-05-08T02:38:37.812Z,2.80
2023-05-08T02:41:42.515Z,2.63
2023-05-08T02:44:45.842Z,2.60
2023-05-08T02:48:07.172Z,3.10
2023-05-08T02:51:14.249Z,2.72
2023-05-08T02:54:24.049Z,3.47
2023-05-08T02:57:36.171Z,2.60
2023-05-08T03:00:47.519Z,2.78
2023-05-08T03:04:07.817Z,3.15
2023-05-08T03:07:12.037Z,3.25
2023-05-08T03:10:16.894Z,3.00
2023-05-08T03:13:21.662Z,2.72
2023-05-08T03:16:26.971Z,3.08
2023-05-08T03:19:37.914Z,3.45
2023-05-08T03:22:44.558Z,3.08
2023-05-08T03:25:48.081Z,3.70
2023-05-08T03:28:53.958Z,3.33
2023-05-08T03:32:02.520Z,2.47
2023-05-08T03:35:06.720Z,3.25
2023-05-08T03:38:09.900Z,3.47
2023-05-08T03:41:14.250Z,3.07
2023-05-08T03:44:19.076Z,2.70
2023-05-08T03:47:26.296Z,4.28
2023-05-08T03:50:30.477Z,3.40
2023-05-08T03:53:33.859Z,4.13
2023-05-08T03:56:38.357Z,3.77
2023-05-08T04:00:00.344Z,3.38
2023-05-08T04:03:27.917Z,3.70
2023-05-08T04:06:49.965Z,3.70
2023-05-08T04:10:22.678Z,3.42
2023-05-08T04:13:31.629Z,3.57
2023-05-08T04:16:40.181Z,3.67
2023-05-08T04:19:48.591Z,4.45
2023-05-08T04:22:54.338Z,4.25
2023-05-08T04:26:00.988Z,3.58
2023-05-08T04:29:07.696Z,3.60
2023-05-08T04:32:11.856Z,5.05
2023-05-08T04:35:15.278Z,3.80
2023-05-08T04:38:19.018Z,4.05
2023-05-08T04:41:22.880Z,3.88
2023-05-08T04:44:26.744Z,3.60
2023-05-08T04:47:30.080Z,3.85
2023-05-08T04:50:33.078Z,3.60
2023-05-08T04:53:35.876Z,4.00
2023-05-08T04:56:38.754Z,3.28
2023-05-08T04:59:41.789Z,4.00
2023-05-08T05:02:44.835Z,4.28
2023-05-08T05:05:47.621Z,3.80
2023-05-08T05:08:50.464Z,4.05
2023-05-08T05:11:53.590Z,4.15
2023-05-08T05:14:56.530Z,5.67
2023-05-08T05:18:00.402Z,4.03
2023-05-08T05:21:03.817Z,4.20
2023-05-08T05:24:06.914Z,5.00
2023-05-08T05:27:09.785Z,4.30
2023-05-08T05:30:15.410Z,4.17
2023-05-08T05:33:18.381Z,4.43
2023-05-08T05:36:21.044Z,5.32
2023-05-08T05:39:23.835Z,4.63
2023-05-08T05:42:27.039Z,4.65
2023-05-08T05:45:33.272Z,3.80
2023-05-08T05:48:37.183Z,4.38
2023-05-08T05:51:40.729Z,4.50
2023-05-08T05:54:44.074Z,3.90
2023-05-08T05:57:48.517Z,3.97
2023-05-08T06:00:52.194Z,3.73
2023-05-08T06:03:55.635Z,4.07
2023-05-08T06:06:58.434Z,3.72
2023-05-08T06:10:01.636Z,4.18
2023-05-08T06:13:09.653Z,5.00
2023-05-08T06:16:12.624Z,4.63
2023-05-08T06:19:15.950Z,4.43
2023-05-08T06:22:26.010Z,5.38
2023-05-08T06:25:29.100Z,7.07
2023-05-08T06:28:31.792Z,5.05
2023-05-08T06:31:34.673Z,7.07
2023-05-08T06:34:37.464Z,3.95
2023-05-08T06:37:40.158Z,7.65
2023-05-08T06:40:46.481Z,5.32
2023-05-08T06:43:49.302Z,4.47
2023-05-08T06:46:52.135Z,5.73
2023-05-08T06:49:55.116Z,4.93
2023-05-08T06:52:58.217Z,4.90
2023-05-08T06:56:01.130Z,4.80
2023-05-08T06:59:08.387Z,5.68
2023-05-08T07:02:12.555Z,7.23
2023-05-08T07:05:15.887Z,6.10
2023-05-08T07:08:21.862Z,6.05
2023-05-08T07:11:30.228Z,5.60
2023-05-08T07:14:33.025Z,4.72
2023-05-08T07:17:37.083Z,5.67
2023-05-08T07:20:39.892Z,5.53
2023-05-08T07:23:42.573Z,4.72
2023-05-08T07:26:45.341Z,6.40
2023-05-08T07:29:48.227Z,8.93
2023-05-08T07:32:51.072Z,6.43
2023-05-08T07:35:54.545Z,3.90
2023-05-08T07:38:57.786Z,9.15
2023-05-08T07:42:00.656Z,4.80
2023-05-08T07:45:04.090Z,5.63
2023-05-08T07:48:08.205Z,5.80
2023-05-08T07:51:15.087Z,6.63
2023-05-08T07:54:17.930Z,3.95
2023-05-08T07:57:20.788Z,5.95
2023-05-08T08:00:23.963Z,6.55
2023-05-08T08:03:26.801Z,7.27
2023-05-08T08:06:31.710Z,7.75
2023-05-08T08:09:41.276Z,4.00
2023-05-08T08:12:45.779Z,3.65
2023-05-08T08:15:48.568Z,5.50
2023-05-08T08:18:53.112Z,8.97
2023-05-08T08:21:55.970Z,4.53
2023-05-08T08:24:59.041Z,6.63
2023-05-08T08:28:01.823Z,6.40
2023-05-08T08:31:04.546Z,3.78
2023-05-08T08:34:07.809Z,4.27
2023-05-08T08:37:10.552Z,4.35
2023-05-08T08:40:13.544Z,5.72
2023-05-08T08:43:16.339Z,5.60
2023-05-08T08:46:23.216Z,6.68
2023-05-08T08:49:34.719Z,6.27
2023-05-08T08:53:04.914Z,5.88
2023-05-08T08:56:09.643Z,5.32
2023-05-08T08:59:13.716Z,6.90
2023-05-08T09:02:19.652Z,5.53
2023-05-08T09:05:23.886Z,5.30
2023-05-08T09:08:27.912Z,4.15
2023-05-08T09:11:30.965Z,3.38
2023-05-08T09:14:33.905Z,3.67
2023-05-08T09:17:40.740Z,5.60
2023-05-08T09:20:44.640Z,3.97
2023-05-08T09:24:04.958Z,2.95
2023-05-08T09:27:21.507Z,2.63
2023-05-08T09:30:24.305Z,4.03
2023-05-08T09:33:29.118Z,3.28
2023-05-08T09:36:32.300Z,2.97
2023-05-08T09:39:36.371Z,3.35
2023-05-08T09:42:39.701Z,4.40
2023-05-08T09:45:42.832Z,6.65
2023-05-08T09:48:46.130Z,3.65
2023-05-08T09:51:55.700Z,4.93
2023-05-08T09:55:10.018Z,5.20
2023-05-08T09:58:13.009Z,5.95
2023-05-08T10:01:49.036Z,4.45
2023-05-08T10:04:52.007Z,3.55
2023-05-08T10:07:54.857Z,3.93
2023-05-08T10:11:17.257Z,5.50
2023-05-08T10:14:22.218Z,5.40
2023-05-08T10:17:40.434Z,3.33
2023-05-08T10:20:47.546Z,5.50
2023-05-08T10:23:53.915Z,3.80
2023-05-08T10:27:07.562Z,4.35
2023-05-08T10:30:13.848Z,3.83
2023-05-08T10:33:21.565Z,4.03
2023-05-08T10:36:25.025Z,5.65
2023-05-08T10:39:29.572Z,4.97
2023-05-08T10:42:42.290Z,5.05
2023-05-08T10:45:45.891Z,7.28
2023-05-08T10:48:58.835Z,4.97
2023-05-08T10:52:19.451Z,5.80
2023-05-08T10:55:31.875Z,4.40
2023-05-08T10:58:37.534Z,5.47
2023-05-08T11:01:40.564Z,4.18
2023-05-08T11:04:44.122Z,6.03
2023-05-08T11:07:57.835Z,4.45
2023-05-08T11:11:01.235Z,3.93
2023-05-08T11:14:07.254Z,4.15
2023-05-08T11:17:11.112Z,3.90
2023-05-08T11:20:14.186Z,4.90
2023-05-08T11:23:28.188Z,3.72
2023-05-08T11:26:40.834Z,4.90
2023-05-08T11:29:45.223Z,5.70
2023-05-08T11:33:09.076Z,5.95
2023-05-08T11:36:15.816Z,4.50
2023-05-08T11:39:18.668Z,6.28
2023-05-08T11:42:27.376Z,5.37
2023-05-08T11:45:31.190Z,5.57
2023-05-08T11:48:35.492Z,5.97
2023-05-08T11:51:45.080Z,3.65
2023-05-08T11:54:50.924Z,7.45
2023-05-08T11:57:56.899Z,6.83
2023-05-08T12:01:04.047Z,8.07
2023-05-08T12:04:12.306Z,6.03
2023-05-08T12:07:16.648Z,6.35
2023-05-08T12:10:19.723Z,7.00
2023-05-08T12:13:26.741Z,6.00
2023-05-08T12:16:29.532Z,5.15
2023-05-08T12:19:32.399Z,9.15
2023-05-08T12:22:35.364Z,14.13
2023-05-08T12:25:40.005Z,5.68
2023-05-08T12:28:45.011Z,10.90
2023-05-08T12:31:48.504Z,11.57
2023-05-08T12:34:52.682Z,8.57
2023-05-08T12:38:00.892Z,9.48
2023-05-08T12:41:04.732Z,7.10
2023-05-08T12:44:17.433Z,7.50
2023-05-08T12:47:20.888Z,7.72
2023-05-08T12:50:25.371Z,5.97
2023-05-08T12:53:30.761Z,7.90
2023-05-08T12:56:33.599Z,7.05
2023-05-08T12:59:36.431Z,10.50
2023-05-08T13:02:47.413Z,8.80
2023-05-08T13:05:53.442Z,7.88
2023-05-08T13:08:56.317Z,8.88
2023-05-08T13:11:59.304Z,5.90
2023-05-08T13:15:04.939Z,9.20
2023-05-08T13:18:08.201Z,9.88
2023-05-08T13:21:11.058Z,7.70
2023-05-08T13:24:17.371Z,11.50
2023-05-08T13:27:20.198Z,7.82
2023-05-08T13:30:23.275Z,6.73
2023-05-08T13:33:33.347Z,9.68
2023-05-08T13:36:37.570Z,6.60
2023-05-08T13:39:41.258Z,8.50
2023-05-08T13:42:44.276Z,7.68
2023-05-08T13:45:47.020Z,10.23
2023-05-08T13:48:49.771Z,7.18
2023-05-08T13:51:56.888Z,8.75
2023-05-08T13:55:00.457Z,6.28
2023-05-08T13:58:03.444Z,6.05
2023-05-08T14:01:21.975Z,6.70
2023-05-08T14:04:30.112Z,7.90
2023-05-08T14:07:32.979Z,8.05
2023-05-08T14:10:35.830Z,8.95
2023-05-08T14:13:38.648Z,5.95
2023-05-08T14:16:41.724Z,10.27
2023-05-08T14:19:46.433Z,7.32
2023-05-08T14:22:49.849Z,6.63
2023-05-08T14:25:52.497Z,8.55
2023-05-08T14:28:55.328Z,5.55
2023-05-08T14:31:58.104Z,7.97
2023-05-08T14:35:00.866Z,6.00
2023-05-08T14:38:05.443Z,6.20
2023-05-08T14:41:09.265Z,13.45
2023-05-08T14:44:11.972Z,8.40
2023-05-08T14:47:18.810Z,7.00
2023-05-08T14:50:21.489Z,6.88
2023-05-08T14:53:24.555Z,6.18
2023-05-08T14:56:30.207Z,6.90
2023-05-08T14:59:35.024Z,6.00
2023-05-08T15:02:37.879Z,5.37
2023-05-08T15:05:40.864Z,5.38
2023-05-08T15:08:46.353Z,7.70
2023-05-08T15:11:49.344Z,4.47
2023-05-08T15:14:52.197Z,5.53
2023-05-08T15:17:55.032Z,6.27
2023-05-08T15:20:59.721Z,5.32
2023-05-08T15:24:02.534Z,3.65
2023-05-08T15:27:05.599Z,4.03
2023-05-08T15:30:09.421Z,5.63
2023-05-08T15:33:12.206Z,5.93
2023-05-08T15:36:15.238Z,6.03
2023-05-08T15:39:18.817Z,4.65
2023-05-08T15:42:21.502Z,6.95
2023-05-08T15:45:25.307Z,6.38
2023-05-08T15:48:28.312Z,4.87
2023-05-08T15:51:31.978Z,5.20
2023-05-08T15:54:34.756Z,5.43
2023-05-08T15:57:37.522Z,4.60
2023-05-08T16:00:44.793Z,4.75
2023-05-08T16:03:49.332Z,4.27
2023-05-08T16:06:52.197Z,4.50
2023-05-08T16:09:55.025Z,4.40
2023-05-08T16:12:57.843Z,4.18
2023-05-08T16:16:04.970Z,4.80
2023-05-08T16:19:07.916Z,4.37
2023-05-08T16:22:10.692Z,4.30
2023-05-08T16:25:13.610Z,5.80
2023-05-08T16:28:17.267Z,5.68
2023-05-08T16:31:20.080Z,4.25
2023-05-08T16:34:22.823Z,4.20
2023-05-08T16:37:25.671Z,4.57
2023-05-08T16:40:29.100Z,7.00
2023-05-08T16:43:34.555Z,4.75
2023-05-08T16:46:39.514Z,3.55
2023-05-08T16:49:42.519Z,4.13
2023-05-08T16:52:45.342Z,5.05
2023-05-08T16:55:48.212Z,3.60
2023-05-08T16:58:51.025Z,4.20
2023-05-08T17:01:54.080Z,3.97
2023-05-08T17:04:56.781Z,4.17
2023-05-08T17:07:59.560Z,4.40
2023-05-08T17:11:02.323Z,5.70
2023-05-08T17:14:05.483Z,4.32
2023-05-08T17:17:09.379Z,5.95
2023-05-08T17:20:13.169Z,3.73
2023-05-08T17:23:16.038Z,4.97
2023-05-08T17:26:18.866Z,3.83
2023-05-08T17:29:21.941Z,5.90
2023-05-08T17:32:24.885Z,4.25
2023-05-08T17:35:27.769Z,3.80
2023-05-08T17:38:30.545Z,4.25
2023-05-08T17:41:33.477Z,4.50
2023-05-08T17:44:36.990Z,4.72
2023-05-08T17:47:40.466Z,4.68
2023-05-08T17:50:49.046Z,3.67
2023-05-08T17:53:56.891Z,4.80
2023-05-08T17:56:59.596Z,5.07
2023-05-08T18:00:02.395Z,4.45
2023-05-08T18:03:05.326Z,6.70
2023-05-08T18:06:08.566Z,4.80
2023-05-08T18:09:12.218Z,4.78
2023-05-08T18:12:15.358Z,4.43
2023-05-08T18:15:18.130Z,3.67
2023-05-08T18:18:24.609Z,4.03
2023-05-08T18:21:29.905Z,5.73
2023-05-08T18:24:32.925Z,4.40
2023-05-08T18:27:36.110Z,3.90
2023-05-08T18:30:40.377Z,3.65
2023-05-08T18:33:43.175Z,5.72
2023-05-08T18:36:45.942Z,3.43
2023-05-08T18:39:49.126Z,3.85
2023-05-08T18:42:52.143Z,4.47
2023-05-08T18:45:54.970Z,4.28
2023-05-08T18:48:58.614Z,3.55
2023-05-08T18:52:01.681Z,3.33
2023-05-08T18:55:04.714Z,3.65
2023-05-08T18:58:07.821Z,3.92
2023-05-08T19:01:10.778Z,4.28
2023-05-08T19:04:14.564Z,4.22
2023-05-08T19:07:17.466Z,4.10
2023-05-08T19:10:20.545Z,3.53
2023-05-08T19:13:23.949Z,4.60
2023-05-08T19:16:27.014Z,4.15
2023-05-08T19:19:30.824Z,5.55
2023-05-08T19:22:35.842Z,3.70
2023-05-08T19:25:39.103Z,5.63
2023-05-08T19:28:42.185Z,3.47
2023-05-08T19:31:45.054Z,4.20
2023-05-08T19:34:48.542Z,4.05
2023-05-08T19:37:51.396Z,4.03
2023-05-08T19:40:57.726Z,3.85
2023-05-08T19:44:01.674Z,4.10
2023-05-08T19:47:04.615Z,4.25
2023-05-08T19:50:18.634Z,3.90
2023-05-08T19:53:23.399Z,4.80
2023-05-08T19:56:26.297Z,4.72
2023-05-08T19:59:29.097Z,4.50
2023-05-08T20:02:31.940Z,4.63
2023-05-08T20:05:34.885Z,5.35
2023-05-08T20:08:37.593Z,4.57
2023-05-08T20:11:40.348Z,4.63
2023-05-08T20:14:43.137Z,3.88
2023-05-08T20:17:45.964Z,4.07
2023-05-08T20:20:48.712Z,3.75
2023-05-08T20:23:51.464Z,4.13
2023-05-08T20:26:56.334Z,3.90
2023-05-08T20:29:59.390Z,3.97
2023-05-08T20:33:05.177Z,3.55
2023-05-08T20:36:08.425Z,4.30
2023-05-08T20:39:12.269Z,3.33
2023-05-08T20:42:15.077Z,5.75
2023-05-08T20:45:18.148Z,5.18
2023-05-08T20:48:20.922Z,3.50
2023-05-08T20:51:24.761Z,3.85
2023-05-08T20:54:29.466Z,4.40
2023-05-08T20:57:32.175Z,3.38
2023-05-08T21:00:35.571Z,3.95
2023-05-08T21:03:38.914Z,3.65
2023-05-08T21:06:42.134Z,3.50
2023-05-08T21:09:44.893Z,3.93
2023-05-08T21:12:47.657Z,3.70
2023-05-08T21:15:53.472Z,4.15
2023-05-08T21:18:58.348Z,3.78
2023-05-08T21:22:01.387Z,4.05
2023-05-08T21:25:04.408Z,3.17
2023-05-08T21:28:07.149Z,3.20
2023-05-08T21:31:10.198Z,3.78
2023-05-08T21:34:13.592Z,4.18
2023-05-08T21:37:16.336Z,4.05
2023-05-08T21:40:19.220Z,3.70
2023-05-08T21:43:22.009Z,3.15
2023-05-08T21:46:24.965Z,3.53
2023-05-08T21:49:27.758Z,3.90
2023-05-08T21:52:30.829Z,3.63
2023-05-08T21:55:33.601Z,3.03
2023-05-08T21:58:36.376Z,2.92
2023-05-08T22:01:39.194Z,3.35
2023-05-08T22:04:42.885Z,4.40
2023-05-08T22:07:47.671Z,3.20
2023-05-08T22:10:50.927Z,3.33
2023-05-08T22:13:57.094Z,5.10
2023-05-08T22:16:59.835Z,4.00
2023-05-08T22:20:02.751Z,3.95
2023-05-08T22:23:05.919Z,3.33
2023-05-08T22:26:08.818Z,4.57
2023-05-08T22:29:11.497Z,3.22
2023-05-08T22:32:14.312Z,3.30
2023-05-08T22:35:17.099Z,3.72
2023-05-08T22:38:19.879Z,3.88
2023-05-08T22:41:22.676Z,3.23
2023-05-08T22:44:25.516Z,2.80
2023-05-08T22:47:28.497Z,3.20
2023-05-08T22:50:31.421Z,4.38
2023-05-08T22:53:34.054Z,3.90
2023-05-08T22:56:38.278Z,2.93
2023-05-08T22:59:40.922Z,4.18
2023-05-08T23:02:43.813Z,3.17
2023-05-08T23:05:46.689Z,4.00
2023-05-08T23:08:49.727Z,3.33
2023-05-08T23:11:52.430Z,3.73
2023-05-08T23:14:55.150Z,3.13
2023-05-08T23:17:57.986Z,4.10
2023-05-08T23:21:09.731Z,3.25
2023-05-08T23:24:12.597Z,3.38
2023-05-08T23:27:15.433Z,3.77
2023-05-08T23:30:18.245Z,3.22
2023-05-08T23:33:26.516Z,2.58
2023-05-08T23:36:30.494Z,3.13
2023-05-08T23:39:37.954Z,3.10
2023-05-08T23:42:40.753Z,3.57
2023-05-08T23:45:43.549Z,4.28
2023-05-08T23:48:46.303Z,3.25
2023-05-08T23:51:49.026Z,2.95
2023-05-08T23:54:52.050Z,3.13
2023-05-08T23:57:54.921Z,2.80
